Time;durP1;ratioP1;P1;durP2;ratioP2;P2;SDS_P1;SDS_P2;PMS_P1;PMS_P2;Temp;Humidity;BMP_temperature;BMP_pressure;BME280_temperature;BME280_humidity;BME280_pressure;Samples;Min_cycle;Max_cycle;Signal;HPM_P1;HPM_P2
2024/03/03 00:00:41;;;;;;;28.30;17.95;;;;;;;8.37;59.32;93534.88;5033110;28;20123;-72
2024/03/03 00:03:06;;;;;;;25.63;16.48;;;;;;;8.47;59.17;93545.19;5032598;28;20017;-72
2024/03/03 00:05:31;;;;;;;27.08;17.63;;;;;;;8.14;59.05;93500.50;5032891;28;20563;-72
2024/03/03 00:07:57;;;;;;;29.00;18.42;;;;;;;8.39;59.19;93544.09;5032829;28;20045;-72
2024/03/03 00:10:22;;;;;;;31.88;19.55;;;;;;;8.24;59.19;93533.88;5032886;28;20521;-72
2024/03/03 00:12:48;;;;;;;30.38;20.80;;;;;;;8.33;59.33;93537.34;5032699;28;20034;-72
2024/03/03 00:15:13;;;;;;;32.03;19.38;;;;;;;8.33;59.21;93537.34;5032536;28;20121;-72
2024/03/03 00:17:38;;;;;;;32.70;19.17;;;;;;;8.34;58.88;93533.63;5033273;28;20033;-72
2024/03/03 00:20:04;;;;;;;35.50;22.80;;;;;;;8.34;58.88;93535.47;5032463;28;20507;-72
2024/03/03 00:22:31;;;;;;;33.28;20.60;;;;;;;8.25;58.96;93519.56;5032488;28;20504;-72
2024/03/03 00:24:57;;;;;;;35.15;19.67;;;;;;;8.27;59.23;93527.97;5032450;28;20524;-72
2024/03/03 00:27:22;;;;;;;32.03;18.85;;;;;;;8.28;58.96;93524.22;5032557;28;20038;-72
2024/03/03 00:29:48;;;;;;;32.97;20.20;;;;;;;8.29;58.77;93512.56;5032483;28;20021;-72
2024/03/03 00:32:13;;;;;;;43.75;26.05;;;;;;;8.31;59.12;93518.34;5032300;28;20037;-72
2024/03/03 00:34:42;;;;;;;45.15;23.15;;;;;;;8.25;58.63;93519.56;5032124;28;20466;-72
2024/03/03 00:37:08;;;;;;;32.05;19.88;;;;;;;8.20;59.02;93511.75;5032341;28;20390;-72
2024/03/03 00:39:37;;;;;;;33.70;21.23;;;;;;;8.21;58.96;93515.97;5031423;28;20095;-72
2024/03/03 00:42:03;;;;;;;31.80;20.65;;;;;;;8.17;58.90;93517.63;5032042;28;20021;-71
2024/03/03 00:44:29;;;;;;;35.80;20.13;;;;;;;7.92;58.42;93468.78;5032525;28;20065;-72
2024/03/03 00:46:54;;;;;;;39.63;21.60;;;;;;;8.18;58.37;93511.25;5031951;28;20065;-72
2024/03/03 00:49:20;;;;;;;30.20;18.73;;;;;;;8.14;58.11;93508.44;5032066;28;20117;-72
2024/03/03 00:51:45;;;;;;;29.50;20.50;;;;;;;8.10;58.35;93517.31;5031922;28;20378;-71
2024/03/03 00:54:11;;;;;;;39.67;22.17;;;;;;;8.00;58.52;93499.00;5031512;28;20388;-72
2024/03/03 00:56:37;;;;;;;38.75;21.25;;;;;;;8.03;58.43;93499.19;5030982;28;20020;-73
2024/03/03 00:59:02;;;;;;;38.95;23.25;;;;;;;8.04;58.14;93500.75;5031779;28;20034;-73
2024/03/03 01:01:27;;;;;;;39.45;21.17;;;;;;;7.95;58.52;93488.56;5031856;28;20037;-72
2024/03/03 01:03:53;;;;;;;34.78;21.30;;;;;;;8.03;58.55;93495.75;5031855;28;20041;-72
2024/03/03 01:06:18;;;;;;;31.65;20.92;;;;;;;8.03;58.46;93501.84;5031652;28;20401;-72
2024/03/03 01:08:43;;;;;;;33.35;20.13;;;;;;;8.06;58.75;93505.75;5032198;28;20416;-72
2024/03/03 01:11:09;;;;;;;30.20;19.77;;;;;;;7.96;59.16;93484.81;5031577;28;20029;-72
2024/03/03 01:13:34;;;;;;;31.40;17.25;;;;;;;7.93;58.82;93466.88;5031696;28;20037;-72
2024/03/03 01:16:00;;;;;;;31.83;17.88;;;;;;;7.95;59.03;93467.38;5031695;28;20433;-72
2024/03/03 01:18:25;;;;;;;25.75;16.88;;;;;;;8.08;59.22;93482.38;5031309;28;20037;-72
2024/03/03 01:20:50;;;;;;;27.20;16.30;;;;;;;8.20;59.36;93503.78;5032087;28;20060;-72
2024/03/03 01:23:16;;;;;;;26.70;15.85;;;;;;;8.16;59.00;93500.19;5031190;28;20029;-72
2024/03/03 01:25:43;;;;;;;29.25;16.52;;;;;;;8.16;59.50;93497.53;5031416;28;20128;-72
2024/03/03 01:28:08;;;;;;;25.60;14.30;;;;;;;8.06;59.67;93476.63;5031348;28;20037;-72
2024/03/03 01:30:33;;;;;;;24.80;15.88;;;;;;;8.18;59.61;93495.34;5031351;28;20030;-72
2024/03/03 01:32:59;;;;;;;21.60;15.10;;;;;;;8.22;59.57;93490.25;5031708;28;20032;-71
2024/03/03 01:35:25;;;;;;;26.70;14.20;;;;;;;8.17;59.81;93490.38;5031762;28;20481;-72
2024/03/03 01:37:50;;;;;;;28.88;16.67;;;;;;;8.12;59.68;93480.69;5031616;28;20504;-72
2024/03/03 01:40:16;;;;;;;26.20;16.02;;;;;;;8.22;59.89;93491.00;5031125;28;20046;-72
2024/03/03 01:42:42;;;;;;;34.47;20.80;;;;;;;8.07;59.75;93464.94;5031355;28;20104;-72
2024/03/03 01:45:21;;;;;;;28.10;18.05;;;;;;;8.28;59.67;93487.16;5031167;28;20144;-72
2024/03/03 01:47:46;;;;;;;31.20;17.80;;;;;;;8.23;59.50;93484.63;5031582;28;20026;-72
2024/03/03 01:50:12;;;;;;;26.67;16.80;;;;;;;8.31;59.42;93491.84;5031138;28;20029;-72
2024/03/03 01:52:37;;;;;;;26.83;17.17;;;;;;;8.31;59.53;93491.84;5034085;28;20033;-72
2024/03/03 01:55:03;;;;;;;29.17;16.15;;;;;;;8.31;59.25;93491.84;5035219;28;20409;-72
2024/03/03 01:57:30;;;;;;;26.13;16.35;;;;;;;8.13;59.28;93474.31;5035434;28;20026;-72
2024/03/03 01:59:57;;;;;;;28.83;15.95;;;;;;;8.21;59.32;93486.81;5035564;28;20028;-71
2024/03/03 02:02:23;;;;;;;25.38;15.70;;;;;;;8.17;59.10;93485.84;5035523;28;20037;-72
2024/03/03 02:04:48;;;;;;;25.13;16.02;;;;;;;8.06;59.16;93488.00;5035296;28;20052;-72
2024/03/03 02:07:14;;;;;;;29.15;16.23;;;;;;;8.08;58.89;93492.97;5035115;28;20544;-71
2024/03/03 02:09:43;;;;;;;27.63;15.32;;;;;;;8.04;58.78;93487.50;5034900;28;20083;-72
2024/03/03 02:12:08;;;;;;;29.60;16.65;;;;;;;8.01;58.71;93487.34;5035017;28;20026;-72
2024/03/03 02:14:34;;;;;;;27.63;16.63;;;;;;;7.95;58.32;93486.69;5035381;28;20156;-72
2024/03/03 02:16:59;;;;;;;32.20;16.80;;;;;;;7.86;58.46;93491.16;5034816;28;20026;-72
2024/03/03 02:19:25;;;;;;;26.58;17.15;;;;;;;7.87;58.25;93491.94;5034992;28;20048;-72
2024/03/03 02:21:50;;;;;;;26.42;16.48;;;;;;;7.88;58.26;93491.63;5034764;28;20404;-72
2024/03/03 02:24:15;;;;;;;26.02;16.60;;;;;;;7.86;58.02;93495.69;5034439;28;20042;-72
2024/03/03 02:26:41;;;;;;;30.85;18.80;;;;;;;7.81;58.20;93501.09;5035127;28;20028;-72
2024/03/03 02:29:08;;;;;;;29.17;18.48;;;;;;;7.70;57.94;93474.84;5034346;28;20034;-72
2024/03/03 02:31:35;;;;;;;31.08;17.85;;;;;;;7.73;57.78;93498.06;5034499;28;20041;-72
2024/03/03 02:34:00;;;;;;;29.25;17.42;;;;;;;7.66;57.76;93487.13;5034473;28;20053;-72
2024/03/03 02:36:25;;;;;;;25.33;15.70;;;;;;;7.65;57.78;93495.34;5034518;28;20061;-72
2024/03/03 02:38:51;;;;;;;25.13;16.35;;;;;;;7.56;57.87;93486.59;5034567;28;20049;-72
2024/03/03 02:41:16;;;;;;;26.88;15.80;;;;;;;7.48;58.13;93496.03;5034518;28;20121;-72
2024/03/03 02:43:42;;;;;;;31.55;17.75;;;;;;;7.47;58.37;93488.41;5034382;28;20080;-72
2024/03/03 02:46:07;;;;;;;28.90;17.88;;;;;;;7.48;58.03;93493.41;5034346;28;20608;-72
2024/03/03 02:48:33;;;;;;;31.58;17.30;;;;;;;7.45;58.42;93486.03;5034297;28;20033;-73
2024/03/03 02:50:58;;;;;;;29.20;16.60;;;;;;;7.46;58.24;93500.84;5034147;28;20465;-72
2024/03/03 02:53:23;;;;;;;30.00;17.80;;;;;;;7.36;58.71;93498.44;5034400;28;20021;-72
2024/03/03 02:55:49;;;;;;;27.85;16.48;;;;;;;7.40;58.54;93498.59;5034192;28;20489;-72
2024/03/03 02:58:14;;;;;;;25.45;15.98;;;;;;;7.43;58.90;93503.31;5034160;28;20051;-72
2024/03/03 03:00:39;;;;;;;23.08;14.20;;;;;;;7.37;58.47;93484.13;5033919;28;20516;-73
2024/03/03 03:03:05;;;;;;;25.92;13.20;;;;;;;7.39;58.89;93503.09;5033400;28;20517;-72
2024/03/03 03:05:30;;;;;;;21.55;12.32;;;;;;;7.39;58.52;93497.81;5034336;28;20029;-72
2024/03/03 03:07:55;;;;;;;23.42;14.43;;;;;;;7.35;58.52;93504.00;5032710;28;20044;-72
2024/03/03 03:10:22;;;;;;;21.35;12.93;;;;;;;7.38;58.69;93501.56;5033837;28;20408;-72
2024/03/03 03:12:47;;;;;;;24.95;15.65;;;;;;;7.38;58.12;93501.56;5033694;28;20040;-72
2024/03/03 03:15:13;;;;;;;21.20;14.10;;;;;;;7.35;57.93;93502.16;5034152;28;20037;-72
2024/03/03 03:17:38;;;;;;;23.15;13.93;;;;;;;7.22;57.93;93492.41;5034422;28;20427;-72
2024/03/03 03:20:04;;;;;;;23.77;13.65;;;;;;;7.28;58.04;93507.88;5033688;28;20073;-72
2024/03/03 03:22:29;;;;;;;23.00;13.75;;;;;;;7.24;57.71;93516.69;5033506;28;20029;-72
2024/03/03 03:24:55;;;;;;;25.33;14.95;;;;;;;7.19;57.79;93524.75;5033733;28;20041;-72
2024/03/03 03:27:20;;;;;;;25.73;16.58;;;;;;;7.13;58.47;93523.28;5033663;28;20033;-72
2024/03/03 03:29:46;;;;;;;30.05;17.13;;;;;;;7.12;58.81;93516.44;5034431;28;20481;-73
2024/03/03 03:32:11;;;;;;;26.00;15.27;;;;;;;7.13;59.03;93526.72;5033360;28;20088;-72
2024/03/03 03:34:36;;;;;;;29.92;17.25;;;;;;;7.11;59.62;93526.22;5033751;28;20460;-72
2024/03/03 03:37:03;;;;;;;25.65;15.60;;;;;;;7.12;59.87;93527.78;5033306;28;20033;-72
2024/03/03 03:39:29;;;;;;;32.92;19.13;;;;;;;7.18;59.96;93520.53;5033222;28;20073;-72
2024/03/03 03:41:54;;;;;;;32.38;18.75;;;;;;;7.26;60.24;93530.41;5033497;28;20049;-71
2024/03/03 03:44:20;;;;;;;37.47;21.52;;;;;;;7.25;60.29;93513.75;5033617;28;20075;-72
2024/03/03 03:46:45;;;;;;;30.90;19.73;;;;;;;7.34;60.40;93529.69;5033491;28;20036;-72
2024/03/03 03:49:12;;;;;;;35.80;20.73;;;;;;;7.37;60.84;93531.75;5033247;28;20038;-71
2024/03/03 03:51:38;;;;;;;36.80;20.98;;;;;;;7.34;61.16;93527.03;5033037;28;20045;-72
2024/03/03 03:54:05;;;;;;;38.42;23.52;;;;;;;7.45;61.04;93533.66;5033147;28;20030;-71
2024/03/03 03:56:34;;;;;;;34.97;21.42;;;;;;;7.50;61.05;93530.91;5033146;28;20544;-72
2024/03/03 03:59:00;;;;;;;35.67;19.70;;;;;;;7.55;60.99;93525.50;5032968;28;20049;-72
2024/03/03 04:01:27;;;;;;;37.72;20.85;;;;;;;7.55;60.66;93533.44;5033041;28;20522;-72
2024/03/03 04:03:56;;;;;;;30.55;20.15;;;;;;;7.52;61.32;93528.75;5032595;28;20033;-72
2024/03/03 04:06:24;;;;;;;38.72;20.20;;;;;;;7.49;61.12;93525.91;5033132;28;20210;-72
2024/03/03 04:08:49;;;;;;;35.75;22.08;;;;;;;7.37;61.39;93517.72;5033192;28;20500;-72
2024/03/03 04:11:15;;;;;;;37.65;21.60;;;;;;;7.44;61.70;93536.59;5032809;28;20045;-72
2024/03/03 04:13:40;;;;;;;36.83;21.65;;;;;;;7.39;61.77;93532.22;5032214;28;20084;-72
2024/03/03 04:16:06;;;;;;;47.25;25.02;;;;;;;7.32;62.08;93529.22;5032306;28;20037;-72
2024/03/03 04:18:33;;;;;;;83.82;27.45;;;;;;;7.49;62.04;93539.13;5032717;28;20120;-72
2024/03/03 04:20:58;;;;;;;68.40;27.92;;;;;;;7.45;62.66;93538.16;5033032;28;20021;-72
2024/03/03 04:23:23;;;;;;;61.70;31.98;;;;;;;7.44;62.62;93526.81;5032850;28;20140;-73
2024/03/03 04:25:49;;;;;;;70.28;31.23;;;;;;;7.52;63.17;93528.75;5032489;28;20033;-72
2024/03/03 04:28:14;;;;;;;69.25;30.98;;;;;;;7.41;62.85;93511.53;5032462;28;20515;-72
2024/03/03 04:30:40;;;;;;;65.63;30.58;;;;;;;7.54;62.80;93536.38;5032453;28;20055;-72
2024/03/03 04:33:05;;;;;;;98.82;36.97;;;;;;;7.51;63.00;93532.47;5032555;28;20021;-72
2024/03/03 04:35:31;;;;;;;72.00;34.67;;;;;;;7.45;62.90;93523.06;5032982;28;20484;-72
2024/03/03 04:37:56;;;;;;;62.72;35.40;;;;;;;7.47;62.83;93515.63;5032275;28;20048;-72
2024/03/03 04:40:21;;;;;;;109.20;30.88;;;;;;;7.56;62.87;93528.94;5031808;28;20037;-72
2024/03/03 04:42:47;;;;;;;72.32;30.58;;;;;;;7.48;63.59;93527.78;5032279;28;20064;-72
2024/03/03 04:45:13;;;;;;;74.78;30.70;;;;;;;7.23;63.48;93509.84;5031676;28;21131;-72
2024/03/03 04:47:41;;;;;;;190.40;35.95;;;;;;;6.77;65.86;93529.31;5032063;28;20544;-72
2024/03/03 04:50:08;;;;;;;129.15;32.55;;;;;;;6.83;67.14;93537.94;5032216;28;20555;-72
2024/03/03 04:52:34;;;;;;;93.05;32.13;;;;;;;7.15;65.91;93529.06;5031714;28;20140;-72
2024/03/03 04:55:00;;;;;;;200.05;36.22;;;;;;;6.73;66.98;93517.00;5031655;28;20037;-72
2024/03/03 04:57:25;;;;;;;176.68;34.40;;;;;;;7.13;66.17;93525.94;5031577;28;20382;-72
2024/03/03 04:59:50;;;;;;;126.15;32.78;;;;;;;6.97;66.14;93527.34;5032346;28;20029;-72
2024/03/03 05:02:19;;;;;;;142.68;33.60;;;;;;;6.68;68.16;93536.38;5032220;28;20474;-72
2024/03/03 05:04:45;;;;;;;60.15;29.13;;;;;;;7.01;66.70;93533.59;5031637;28;20489;-72
2024/03/03 05:07:10;;;;;;;81.82;31.88;;;;;;;7.09;65.95;93527.63;5031473;28;20049;-72
2024/03/03 05:09:39;;;;;;;131.88;33.50;;;;;;;7.15;65.43;93513.19;5031612;28;20576;-71
2024/03/03 05:12:06;;;;;;;74.47;30.35;;;;;;;7.14;65.96;93524.88;5031729;28;20021;-72
2024/03/03 05:14:31;;;;;;;87.88;32.72;;;;;;;7.32;65.38;93534.50;5032066;28;20018;-72
2024/03/03 05:16:57;;;;;;;106.57;31.52;;;;;;;7.12;65.16;93534.94;5031538;28;20030;-72
2024/03/03 05:19:23;;;;;;;143.63;32.95;;;;;;;6.76;66.48;93521.69;5031528;28;20026;-72
2024/03/03 05:21:49;;;;;;;125.18;29.92;;;;;;;6.94;65.82;93512.88;5031507;28;20045;-72
2024/03/03 05:24:15;;;;;;;150.10;31.13;;;;;;;7.08;65.68;93534.75;5031363;28;20041;-72
2024/03/03 05:26:40;;;;;;;143.75;33.63;;;;;;;7.06;65.63;93517.63;5031649;28;20029;-72
2024/03/03 05:29:05;;;;;;;143.73;33.17;;;;;;;7.22;65.33;93537.38;5031141;28;20029;-72
2024/03/03 05:31:38;;;;;;;102.45;28.55;;;;;;;7.15;65.12;93529.06;5031386;28;20029;-72
2024/03/03 05:34:03;;;;;;;106.38;33.25;;;;;;;7.24;65.07;93535.19;5031622;28;20036;-72
2024/03/03 05:36:29;;;;;;;84.38;30.00;;;;;;;7.39;65.08;93553.38;5031627;28;20408;-72
2024/03/03 05:38:54;;;;;;;120.22;29.35;;;;;;;7.33;65.13;93546.66;5030561;28;20103;-72
2024/03/03 05:41:25;;;;;;;87.32;27.33;;;;;;;7.33;64.35;93559.88;5030048;28;20025;-73
2024/03/03 05:43:50;;;;;;;77.03;28.10;;;;;;;7.19;65.42;93567.06;5030141;28;20041;-73
2024/03/03 05:46:16;;;;;;;55.33;28.02;;;;;;;6.99;65.88;93538.41;5030089;28;20034;-73
2024/03/03 05:48:41;;;;;;;66.93;28.35;;;;;;;7.18;65.75;93563.63;5030026;28;20037;-73
2024/03/03 05:51:06;;;;;;;80.28;28.40;;;;;;;7.21;65.73;93570.19;5030078;28;20049;-72
2024/03/03 05:53:32;;;;;;;78.03;27.63;;;;;;;7.24;64.83;93548.41;5030361;28;20025;-73
2024/03/03 05:55:57;;;;;;;68.88;27.40;;;;;;;7.05;65.81;93556.50;5030936;28;20034;-73
2024/03/03 05:58:22;;;;;;;98.53;25.38;;;;;;;7.11;66.58;93573.81;5029881;28;20072;-73
2024/03/03 06:00:48;;;;;;;72.80;27.83;;;;;;;7.01;66.78;93554.75;5029895;28;20556;-73
2024/03/03 06:03:14;;;;;;;102.18;28.10;;;;;;;7.07;66.32;93550.91;5030053;28;20083;-73
2024/03/03 06:05:39;;;;;;;57.78;23.52;;;;;;;7.18;65.55;93561.00;5030481;28;20028;-73
2024/03/03 06:08:05;;;;;;;48.72;23.05;;;;;;;7.06;65.26;93562.56;5029939;28;20049;-73
2024/03/03 06:10:30;;;;;;;49.13;21.75;;;;;;;7.03;66.89;93582.47;5029864;28;20422;-73
2024/03/03 06:12:56;;;;;;;52.47;23.45;;;;;;;6.85;66.70;93562.97;5030905;28;20038;-72
2024/03/03 06:15:21;;;;;;;69.10;23.05;;;;;;;6.99;67.06;93575.44;5031526;28;20029;-72
2024/03/03 06:17:46;;;;;;;41.55;21.63;;;;;;;7.05;66.46;93582.94;5030951;28;20493;-73
2024/03/03 06:20:12;;;;;;;56.00;23.35;;;;;;;7.06;66.30;93575.78;5031021;28;20034;-72
2024/03/03 06:22:37;;;;;;;45.08;20.95;;;;;;;7.05;66.37;93582.16;5031001;28;20481;-73
2024/03/03 06:25:02;;;;;;;46.65;20.77;;;;;;;7.03;66.70;93589.63;5030914;28;20218;-73
2024/03/03 06:27:28;;;;;;;47.85;20.95;;;;;;;6.66;68.18;93580.81;5030586;28;20042;-72
2024/03/03 06:29:53;;;;;;;50.80;21.38;;;;;;;6.46;68.95;93575.91;5030710;28;20380;-71
2024/03/03 06:32:18;;;;;;;53.92;21.08;;;;;;;6.45;68.59;93590.22;5031394;28;20021;-73
2024/03/03 06:34:45;;;;;;;50.10;22.50;;;;;;;6.61;68.87;93586.19;5030982;28;20104;-73
2024/03/03 06:37:11;;;;;;;67.38;25.40;;;;;;;6.62;67.82;93579.03;5031053;28;20167;-72
2024/03/03 06:39:37;;;;;;;51.88;25.60;;;;;;;6.76;66.88;93566.63;5034496;28;20037;-73
2024/03/03 06:42:02;;;;;;;51.38;24.90;;;;;;;6.82;67.50;93576.00;5034525;28;20026;-72
2024/03/03 06:44:28;;;;;;;43.10;19.48;;;;;;;6.82;66.39;93568.88;5034759;28;20385;-73
2024/03/03 06:46:53;;;;;;;43.28;21.92;;;;;;;7.06;66.06;93594.28;5034287;28;20038;-72
2024/03/03 06:49:18;;;;;;;47.33;21.35;;;;;;;6.99;66.18;93588.66;5034525;28;20419;-73
2024/03/03 06:51:44;;;;;;;44.88;21.52;;;;;;;6.88;65.75;93576.69;5034440;28;20519;-72
2024/03/03 06:54:09;;;;;;;47.67;23.75;;;;;;;6.84;65.57;93556.16;5034274;28;20045;-73
2024/03/03 06:56:35;;;;;;;60.35;24.45;;;;;;;6.66;67.24;93574.75;5034685;28;20480;-73
2024/03/03 06:59:00;;;;;;;57.50;26.60;;;;;;;6.76;68.36;93585.91;5034222;28;20033;-73
2024/03/03 07:01:26;;;;;;;61.03;30.58;;;;;;;6.65;68.63;93589.81;5034017;28;20061;-73
2024/03/03 07:06:16;;;;;;;55.35;27.38;;;;;;;6.44;70.03;93599.19;5034012;28;20459;-72
2024/03/03 07:08:42;;;;;;;54.15;25.52;;;;;;;6.66;68.14;93577.38;5034555;28;20159;-73
2024/03/03 07:11:07;;;;;;;54.17;25.55;;;;;;;6.81;68.15;93593.72;5034039;28;20030;-72
2024/03/03 07:13:33;;;;;;;40.65;19.27;;;;;;;6.96;67.46;93589.22;5033587;28;20520;-73
2024/03/03 07:15:58;;;;;;;35.60;17.98;;;;;;;6.76;66.79;93574.53;5033752;28;20060;-72
2024/03/03 07:18:23;;;;;;;38.08;20.38;;;;;;;7.12;66.78;93609.00;5033761;28;20033;-73
2024/03/03 07:20:49;;;;;;;33.15;19.83;;;;;;;6.92;67.41;93604.09;5034094;28;20033;-73
2024/03/03 07:23:14;;;;;;;36.80;20.85;;;;;;;6.48;68.47;93568.47;5033660;28;20092;-72
2024/03/03 07:25:39;;;;;;;32.88;19.45;;;;;;;7.02;67.98;93593.34;5033541;28;20412;-73
2024/03/03 07:28:05;;;;;;;35.53;19.83;;;;;;;7.28;67.27;93605.75;5033822;28;20033;-72
2024/03/03 07:30:31;;;;;;;32.72;17.48;;;;;;;7.11;66.05;93591.56;5033540;28;20116;-72
2024/03/03 07:32:56;;;;;;;33.78;19.27;;;;;;;7.18;66.61;93613.88;5033778;28;20537;-72
2024/03/03 07:35:22;;;;;;;35.55;19.70;;;;;;;7.19;65.99;93609.38;5034148;28;20484;-73
2024/03/03 07:37:47;;;;;;;32.83;17.83;;;;;;;7.11;65.99;93594.19;5033559;28;20115;-72
2024/03/03 07:40:12;;;;;;;32.80;18.55;;;;;;;7.47;65.48;93626.78;5033246;28;20057;-73
2024/03/03 07:42:38;;;;;;;41.20;21.45;;;;;;;7.43;65.72;93617.88;5033527;28;20049;-72
2024/03/03 07:45:03;;;;;;;33.55;19.73;;;;;;;7.45;65.64;93620.19;5033467;28;20033;-72
2024/03/03 07:47:29;;;;;;;39.70;20.42;;;;;;;6.98;66.76;93626.72;5033723;28;20052;-73
2024/03/03 07:49:54;;;;;;;37.53;20.08;;;;;;;7.11;67.18;93620.63;5033357;28;20033;-73
2024/03/03 07:52:20;;;;;;;39.90;21.65;;;;;;;7.26;66.42;93592.03;5033318;28;20030;-73
2024/03/03 07:54:45;;;;;;;42.17;21.55;;;;;;;7.40;66.17;93621.09;5033502;28;20033;-73
2024/03/03 07:57:11;;;;;;;38.15;19.33;;;;;;;7.49;65.90;93613.22;5033214;28;20025;-72
2024/03/03 07:59:36;;;;;;;38.40;20.80;;;;;;;7.63;65.36;93611.34;5033775;28;20022;-73
2024/03/03 08:02:02;;;;;;;35.28;21.30;;;;;;;7.55;65.47;93607.53;5033162;28;20037;-73
2024/03/03 08:04:28;;;;;;;32.10;18.95;;;;;;;7.15;66.12;93618.97;5033033;28;20167;-73
2024/03/03 08:06:54;;;;;;;44.13;23.20;;;;;;;7.19;67.16;93612.03;5032943;28;20064;-73
2024/03/03 08:09:19;;;;;;;30.10;18.70;;;;;;;7.37;66.31;93589.16;5033146;28;20030;-72
2024/03/03 08:11:45;;;;;;;30.63;17.60;;;;;;;7.30;65.36;93616.78;5033187;28;20044;-73
2024/03/03 08:14:11;;;;;;;34.58;18.92;;;;;;;7.20;66.51;93616.22;5032649;28;20426;-72
2024/03/03 08:16:36;;;;;;;38.53;19.17;;;;;;;7.38;66.34;93610.03;5032909;28;20030;-73
2024/03/03 08:19:02;;;;;;;36.75;19.98;;;;;;;6.68;67.18;93605.09;5032421;28;20029;-73
2024/03/03 08:21:27;;;;;;;35.35;19.90;;;;;;;6.76;68.47;93612.34;5032706;28;20083;-73
2024/03/03 08:23:53;;;;;;;36.55;20.15;;;;;;;5.95;70.94;93608.47;5032943;28;20029;-72
2024/03/03 08:26:18;;;;;;;40.22;22.50;;;;;;;5.93;71.61;93599.25;5031204;28;20460;-72
2024/03/03 08:28:44;;;;;;;36.70;22.42;;;;;;;6.07;71.14;93615.16;5032482;28;20041;-73
2024/03/03 08:31:09;;;;;;;31.85;18.58;;;;;;;6.72;69.56;93616.63;5032375;28;20053;-73
2024/03/03 08:33:34;;;;;;;32.20;18.52;;;;;;;6.82;67.63;93600.59;5032411;28;20037;-72
2024/03/03 08:36:00;;;;;;;34.80;21.48;;;;;;;6.30;69.11;93608.97;5032471;28;20017;-71
2024/03/03 08:38:25;;;;;;;37.33;20.27;;;;;;;5.96;71.57;93614.53;5032581;28;20033;-71
2024/03/03 08:40:51;;;;;;;40.00;21.98;;;;;;;5.70;72.19;93606.22;5031933;28;20068;-72
2024/03/03 08:43:17;;;;;;;35.45;19.42;;;;;;;6.10;71.67;93609.28;5031171;28;20563;-72
2024/03/03 08:45:43;;;;;;;30.92;18.38;;;;;;;6.23;71.04;93609.34;5032473;28;20057;-72
2024/03/03 08:48:09;;;;;;;32.33;19.20;;;;;;;5.91;72.00;93606.69;5032100;28;20441;-72
2024/03/03 08:50:34;;;;;;;29.70;19.42;;;;;;;5.90;73.44;93616.47;5032756;28;20025;-72
2024/03/03 08:53:00;;;;;;;34.30;19.58;;;;;;;5.97;72.18;93616.06;5031848;28;20037;-72
2024/03/03 08:55:25;;;;;;;36.05;19.50;;;;;;;6.05;71.92;93618.06;5031874;28;20095;-71
2024/03/03 08:57:51;;;;;;;33.47;18.90;;;;;;;6.53;70.97;93618.59;5032186;28;20540;-72
2024/03/03 09:00:16;;;;;;;32.58;20.13;;;;;;;5.57;73.24;93599.81;5031476;28;20030;-72
2024/03/03 09:02:42;;;;;;;31.90;20.17;;;;;;;5.63;73.57;93570.72;5032513;28;20057;-72
2024/03/03 09:05:09;;;;;;;31.48;19.73;;;;;;;6.18;72.42;93616.56;5031664;28;20068;-72
2024/03/03 09:07:35;;;;;;;39.33;21.85;;;;;;;6.46;71.73;93607.59;5030847;28;20089;-72
2024/03/03 09:10:01;;;;;;;35.63;21.20;;;;;;;6.28;72.74;93611.09;5030237;28;20076;-72
2024/03/03 09:12:26;;;;;;;34.95;21.20;;;;;;;6.43;72.19;93608.19;5031757;28;20037;-72
2024/03/03 09:14:53;;;;;;;90.78;45.35;;;;;;;6.17;72.49;93609.69;5031131;28;20465;-72
2024/03/03 09:17:19;;;;;;;48.58;29.38;;;;;;;6.07;73.36;93609.88;5031790;28;20044;-72
2024/03/03 09:19:45;;;;;;;31.92;21.23;;;;;;;6.07;73.13;93609.88;5031644;28;20038;-72
2024/03/03 09:22:11;;;;;;;37.45;22.08;;;;;;;6.00;72.34;93603.09;5031911;28;20688;-73
2024/03/03 09:24:36;;;;;;;38.05;23.08;;;;;;;6.26;72.29;93607.97;5031570;28;20034;-72
2024/03/03 09:27:02;;;;;;;38.78;22.63;;;;;;;6.34;72.82;93617.88;5031497;28;20112;-72
2024/03/03 09:29:27;;;;;;;37.65;21.85;;;;;;;6.55;72.79;93613.00;5032036;28;20032;-72
2024/03/03 09:31:53;;;;;;;36.22;21.55;;;;;;;6.78;71.26;93610.19;5030452;28;20040;-72
2024/03/03 09:34:18;;;;;;;38.55;22.10;;;;;;;6.91;71.71;93592.75;5031496;28;20036;-72
2024/03/03 09:36:44;;;;;;;43.67;21.73;;;;;;;6.68;69.57;93593.75;5031867;28;20045;-72
2024/03/03 09:39:09;;;;;;;33.88;22.27;;;;;;;6.98;70.15;93602.94;5031369;28;20532;-72
2024/03/03 09:41:35;;;;;;;36.85;22.48;;;;;;;6.46;70.68;93598.91;5032002;28;20447;-72
2024/03/03 09:44:16;;;;;;;38.42;22.23;;;;;;;6.34;72.62;93591.47;5031547;28;20424;-72
2024/03/03 09:46:42;;;;;;;36.42;22.40;;;;;;;6.48;71.92;93594.91;5031187;28;20452;-72
2024/03/03 09:49:13;;;;;;;30.45;20.50;;;;;;;6.58;70.44;93568.28;5031376;28;20041;-72
2024/03/03 09:51:41;;;;;;;35.92;22.52;;;;;;;7.08;70.86;93577.06;5031315;28;20064;-72
2024/03/03 09:54:08;;;;;;;39.78;23.73;;;;;;;7.08;70.43;93597.44;5031042;28;20469;-72
2024/03/03 09:56:38;;;;;;;50.10;25.83;;;;;;;6.51;72.10;93575.03;5032278;28;20222;-72
2024/03/03 09:59:04;;;;;;;58.72;30.88;;;;;;;6.69;72.62;93585.53;5031115;28;20520;-72
2024/03/03 10:01:31;;;;;;;57.35;31.08;;;;;;;6.57;73.18;93589.72;5031343;28;20441;-72
2024/03/03 10:03:59;;;;;;;62.45;33.55;;;;;;;6.43;73.50;93592.34;5031097;28;20041;-72
2024/03/03 10:06:24;;;;;;;59.38;32.95;;;;;;;6.12;74.86;93578.06;5031458;28;20049;-72
2024/03/03 10:08:53;;;;;;;57.00;31.63;;;;;;;6.21;75.04;93582.44;5031813;28;20025;-72
2024/03/03 10:11:23;;;;;;;47.50;28.75;;;;;;;6.38;74.74;93584.50;5031496;28;20124;-72
2024/03/03 10:13:49;;;;;;;49.35;27.20;;;;;;;6.48;74.82;93579.03;5034051;28;20045;-72
2024/03/03 10:16:16;;;;;;;51.58;29.20;;;;;;;6.35;73.23;93585.91;5035085;28;20033;-72
2024/03/03 10:18:42;;;;;;;54.05;27.88;;;;;;;6.20;73.53;93572.16;5035023;28;20032;-72
2024/03/03 10:21:12;;;;;;;49.72;29.55;;;;;;;6.27;73.42;93551.44;5035128;28;20021;-72
2024/03/03 10:23:38;;;;;;;51.83;28.35;;;;;;;6.89;73.72;93588.84;5035439;28;20108;-72
2024/03/03 10:26:04;;;;;;;48.42;25.98;;;;;;;6.78;72.52;93578.47;5034919;28;20045;-72
2024/03/03 10:28:30;;;;;;;43.92;25.45;;;;;;;6.63;73.62;93580.63;5034774;28;20037;-72
2024/03/03 10:31:15;;;;;;;41.75;26.38;;;;;;;6.80;72.08;93565.72;5034643;28;20588;-73
2024/03/03 10:33:58;;;;;;;;;;;;;;;6.96;71.50;93568.06;5035357;28;20033;-73
2024/03/03 10:36:23;;;;;;;45.05;23.92;;;;;;;6.43;72.65;93547.44;5035068;28;20004;-73
2024/03/03 10:38:55;;;;;;;45.10;24.15;;;;;;;6.57;73.45;93565.94;5034533;28;20128;-73
2024/03/03 10:41:21;;;;;;;43.55;24.40;;;;;;;6.76;72.61;93558.69;5034953;28;20528;-73
2024/03/03 10:43:46;;;;;;;40.60;24.67;;;;;;;6.94;72.00;93551.72;5034817;28;20172;-73
2024/03/03 10:46:12;;;;;;;43.17;23.55;;;;;;;6.83;71.86;93556.44;5032811;28;20030;-73
2024/03/03 10:48:40;;;;;;;48.17;24.17;;;;;;;6.84;72.75;93528.94;5034225;28;20683;-73
2024/03/03 10:51:07;;;;;;;40.72;24.65;;;;;;;6.76;72.33;93535.69;5033897;28;20088;-73
2024/03/03 10:53:32;;;;;;;48.53;26.15;;;;;;;7.03;72.78;93528.81;5034848;28;20025;-73
2024/03/03 10:55:58;;;;;;;39.80;23.58;;;;;;;7.16;72.54;93527.97;5033982;28;20466;-73
2024/03/03 10:58:26;;;;;;;40.55;23.25;;;;;;;7.27;72.06;93516.09;5034153;28;20095;-73
2024/03/03 11:00:53;;;;;;;39.10;24.80;;;;;;;7.38;70.96;93525.38;5033700;28;20041;-72
2024/03/03 11:03:19;;;;;;;63.10;29.48;;;;;;;7.37;71.03;93484.13;5033268;28;20036;-74
2024/03/03 11:05:46;;;;;;;39.75;25.48;;;;;;;7.75;70.55;93531.41;5034591;28;20028;-73
2024/03/03 11:08:13;;;;;;;42.03;24.70;;;;;;;7.92;69.27;93505.06;5033376;28;20520;-73
2024/03/03 11:10:38;;;;;;;42.67;24.25;;;;;;;8.14;67.30;93499.72;5033577;28;20045;-73
2024/03/03 11:13:04;;;;;;;41.72;23.67;;;;;;;7.93;67.89;93485.41;5033819;28;20569;-73
2024/03/03 11:15:35;;;;;;;41.85;24.35;;;;;;;8.23;67.79;93497.09;5034081;28;20033;-73
2024/03/03 11:18:04;;;;;;;43.30;24.08;;;;;;;8.28;67.98;93487.16;5034215;28;20048;-73
2024/03/03 11:20:40;;;;;;;46.38;24.05;;;;;;;8.23;67.51;93481.97;5034441;28;20025;-73